Aviation Digital Data Service (ADDS)

Output produced by METARs form (2237 UTC 23 March 2019)
found at http://www.aviationweather.gov/metar/data/
 
Forecast for: VVNB (HANOI/NOIBAI INT, VN)
Text: TAF VVNB 231700Z 2318/2418 05008KT 8000 SCT025 BKN040
Forecast period: 1800 UTC 23 March 2019 to 1800 UTC 24 March 2019
Forecast type: FROM: standard forecast or significant change
Winds: from the NE (50 degrees) at 9 MPH (8 knots; 4.1 m/s)
Visibility: 5 miles (8 km)
Ceiling: 4000 feet AGL
Clouds: scattered clouds at 2500 feet AGL
broken clouds at 4000 feet AGL
Weather: no significant weather forecast for this period
Text: TEMPO 2322/2401 5000 SHRA BKN010 FEW020TCU BKN040
Forecast period: 2200 UTC 23 March 2019 to 0100 UTC 24 March 2019
Forecast type: TEMPORARY: The following changes expected for less than half the time period
Visibility: 3 miles (5 km)
Ceiling: 1000 feet AGL
Clouds: broken clouds at 1000 feet AGL
few clouds at 2000 feet AGL
broken clouds at 4000 feet AGL
Weather: SHRA  (rain showers)